Time;durP1;ratioP1;P1;durP2;ratioP2;P2;SDS_P1;SDS_P2;PMS_P1;PMS_P2;Temp;Humidity;BMP_temperature;BMP_pressure;BME280_temperature;BME280_humidity;BME280_pressure;Samples;Min_cycle;Max_cycle;Signal;HPM_P1;HPM_P2
2022/11/05 00:10:34;;;;;;;1.15;1.05;;;19.30;69.10;;;;;;5009126;28;20533;-22
2022/11/05 00:18:29;;;;;;;;;;;19.30;68.90;;;;;;5006221;28;20105;-22
2022/11/05 00:20:54;;;;;;;0.90;0.90;;;19.30;69.10;;;;;;4994081;28;19925;-22
2022/11/05 00:26:06;;;;;;;0.80;0.75;;;19.20;69.30;;;;;;5009343;28;20125;-21
2022/11/05 00:28:31;;;;;;;1.25;1.15;;;19.20;69.40;;;;;;5011431;28;20108;-22
2022/11/05 00:31:02;;;;;;;1.00;0.98;;;19.30;69.60;;;;;;4993154;28;20050;-21
2022/11/05 00:33:27;;;;;;;1.00;1.00;;;19.20;69.50;;;;;;4998581;28;20415;-22
2022/11/05 00:35:53;;;;;;;1.35;1.25;;;19.20;69.60;;;;;;5011242;28;20057;-22
2022/11/05 00:38:18;;;;;;;1.20;1.10;;;19.20;70.30;;;;;;5010760;28;20052;-22
2022/11/05 00:40:44;;;;;;;1.65;1.02;;;19.20;69.40;;;;;;5011746;28;20581;-23
2022/11/05 00:45:54;;;;;;;0.93;0.93;;;19.20;69.60;;;;;;5016133;28;20087;-21
2022/11/05 00:51:06;;;;;;;1.10;1.00;;;19.10;69.80;;;;;;4993613;28;20089;-23
2022/11/05 00:53:31;;;;;;;1.00;0.90;;;19.10;69.60;;;;;;4994425;28;20042;-28
2022/11/05 00:55:57;;;;;;;1.85;1.00;;;19.10;69.60;;;;;;4992113;28;20124;-23
2022/11/05 00:58:23;;;;;;;1.27;1.08;;;19.20;69.20;;;;;;4994044;28;20133;-22
2022/11/05 01:00:50;;;;;;;1.33;1.10;;;19.20;69.40;;;;;;4994107;28;20477;-25
2022/11/05 01:03:16;;;;;;;1.38;0.90;;;19.20;69.30;;;;;;4990099;28;20445;-26
2022/11/05 01:05:44;;;;;;;0.80;0.80;;;19.10;69.30;;;;;;5006035;28;20554;-22
2022/11/05 01:08:10;;;;;;;1.10;1.00;;;19.10;69.40;;;;;;5015136;28;20050;-28
2022/11/05 01:10:40;;;;;;;1.33;1.10;;;19.10;69.30;;;;;;5015811;28;20252;-22
2022/11/05 01:13:06;;;;;;;0.93;0.90;;;19.10;69.20;;;;;;4995009;28;20584;-22
2022/11/05 01:15:31;;;;;;;0.80;0.68;;;19.20;69.20;;;;;;4993028;28;20133;-22
2022/11/05 01:17:57;;;;;;;0.70;0.70;;;19.10;69.30;;;;;;4988743;28;20042;-22
2022/11/05 01:20:23;;;;;;;1.00;0.80;;;19.10;69.10;;;;;;4990638;28;20125;-21
2022/11/05 01:22:48;;;;;;;1.02;0.93;;;19.10;69.10;;;;;;4993350;28;20523;-22
2022/11/05 01:25:14;;;;;;;1.15;1.10;;;19.20;69.00;;;;;;4989838;28;20050;-21
2022/11/05 01:27:39;;;;;;;1.00;0.80;;;19.20;69.10;;;;;;4990221;28;20133;-22
2022/11/05 01:30:06;;;;;;;1.02;0.93;;;19.20;69.20;;;;;;4991369;28;20042;-22
2022/11/05 01:32:33;;;;;;;1.15;1.02;;;19.10;69.40;;;;;;4992233;28;20142;-22
2022/11/05 01:34:58;;;;;;;0.80;0.77;;;19.10;69.40;;;;;;4991244;28;20416;-22
2022/11/05 01:37:24;;;;;;;1.17;1.08;;;19.10;69.20;;;;;;4988629;28;20604;-22
2022/11/05 01:39:49;;;;;;;0.85;0.85;;;19.10;69.20;;;;;;4992806;28;20050;-24
2022/11/05 01:42:20;;;;;;;0.80;0.80;;;19.10;69.50;;;;;;4988971;28;20065;-22
2022/11/05 01:44:52;;;;;;;0.85;0.85;;;19.00;69.50;;;;;;4988910;28;20096;-22
2022/11/05 01:47:22;;;;;;;0.82;0.80;;;19.20;69.00;;;;;;4991018;28;20189;-23
2022/11/05 01:49:47;;;;;;;1.27;0.95;;;19.20;69.20;;;;;;5001263;28;20052;-21
2022/11/05 01:52:13;;;;;;;1.08;0.98;;;19.10;68.80;;;;;;4994672;28;20411;-22
2022/11/05 01:54:38;;;;;;;0.90;0.90;;;19.10;69.10;;;;;;4994311;28;20038;-21
2022/11/05 01:57:06;;;;;;;1.10;1.00;;;19.10;69.20;;;;;;4983194;28;20104;-22
2022/11/05 01:59:37;;;;;;;1.00;0.93;;;19.10;69.30;;;;;;5004047;28;20514;-21
2022/11/05 02:02:03;;;;;;;0.77;0.70;;;19.10;69.40;;;;;;4990166;28;20096;-22
2022/11/05 02:04:40;;;;;;;1.52;0.85;;;19.00;69.40;;;;;;4991513;28;20046;-21
2022/11/05 02:07:06;;;;;;;0.68;0.68;;;19.00;69.40;;;;;;4973453;28;20159;-21
2022/11/05 02:09:47;;;;;;;0.82;0.70;;;19.00;69.40;;;;;;4968838;28;20109;-24
2022/11/05 02:12:13;;;;;;;0.80;0.80;;;19.00;69.40;;;;;;4990545;28;20590;-22
2022/11/05 02:14:39;;;;;;;0.90;0.80;;;19.00;69.50;;;;;;4966280;28;20042;-22
2022/11/05 02:17:09;;;;;;;1.25;1.15;;;19.00;69.50;;;;;;4965098;28;20042;-21
2022/11/05 02:19:56;;;;;;;0.70;0.70;;;19.00;69.50;;;;;;4969155;28;20054;-22
2022/11/05 02:22:29;;;;;;;1.15;0.63;;;18.90;69.70;;;;;;4964227;28;20046;-21
2022/11/05 02:25:06;;;;;;;0.52;0.52;;;19.00;69.60;;;;;;4976066;28;20038;-21
2022/11/05 02:28:09;;;;;;;2.47;0.63;;;18.90;69.40;;;;;;4990749;28;20144;-21
2022/11/05 02:31:01;;;;;;;0.98;0.80;;;18.90;69.30;;;;;;4964454;28;20108;-21
2022/11/05 02:33:34;;;;;;;0.73;0.73;;;19.00;69.50;;;;;;5000871;28;21038;-21
2022/11/05 02:36:09;;;;;;;0.83;0.73;;;19.00;69.40;;;;;;4996533;28;20038;-24
2022/11/05 02:38:56;;;;;;;0.70;0.70;;;18.90;69.40;;;;;;5008933;28;20049;-21
2022/11/05 02:41:21;;;;;;;0.88;0.88;;;18.90;69.40;;;;;;5010978;28;20072;-21
2022/11/05 02:43:56;;;;;;;0.90;0.80;;;18.90;69.50;;;;;;5014203;28;20085;-30
2022/11/05 02:46:53;;;;;;;0.70;0.70;;;18.90;69.30;;;;;;5009948;28;20085;-22
2022/11/05 02:49:31;;;;;;;0.75;0.75;;;18.90;69.30;;;;;;5018810;28;20107;-21
2022/11/05 02:51:58;;;;;;;0.55;0.50;;;19.00;69.50;;;;;;5019713;28;20057;-21
2022/11/05 02:54:26;;;;;;;0.88;0.60;;;18.90;69.30;;;;;;5011746;28;20041;-22
2022/11/05 02:56:52;;;;;;;0.73;0.73;;;18.90;69.20;;;;;;5017570;28;20104;-21
2022/11/05 02:59:17;;;;;;;0.68;0.68;;;18.90;69.10;;;;;;5016207;28;20065;-21
2022/11/05 03:01:43;;;;;;;0.50;0.50;;;19.00;68.80;;;;;;5017449;28;20053;-21
2022/11/05 03:04:10;;;;;;;0.70;0.70;;;18.90;69.10;;;;;;5014199;28;20048;-22
2022/11/05 03:06:39;;;;;;;0.98;0.80;;;18.90;69.20;;;;;;5030797;28;20076;-23
2022/11/05 03:09:17;;;;;;;0.68;0.60;;;18.90;69.20;;;;;;5007346;28;20560;-21
2022/11/05 03:12:03;;;;;;;0.95;0.75;;;18.90;69.20;;;;;;5017293;28;20049;-21
2022/11/05 03:15:03;;;;;;;0.60;0.60;;;18.90;69.20;;;;;;5000191;28;20179;-21
2022/11/05 03:17:42;;;;;;;0.68;0.60;;;18.90;69.30;;;;;;4998655;28;20037;-21
2022/11/05 03:20:34;;;;;;;0.60;0.60;;;18.90;69.20;;;;;;5010263;28;20047;-22
2022/11/05 03:23:11;;;;;;;1.50;0.60;;;18.90;69.30;;;;;;5019546;28;20402;-22
2022/11/05 03:25:42;;;;;;;0.73;0.60;;;18.90;69.20;;;;;;5011475;28;20050;-22
2022/11/05 03:28:07;;;;;;;0.70;0.70;;;18.90;69.20;;;;;;5008776;28;20057;-21
2022/11/05 03:30:34;;;;;;;0.70;0.70;;;18.90;69.20;;;;;;5014674;28;20046;-26
2022/11/05 03:33:02;;;;;;;0.98;0.82;;;18.80;69.30;;;;;;5012605;28;20770;-21
2022/11/05 03:35:30;;;;;;;0.70;0.70;;;18.80;69.30;;;;;;4995755;28;20495;-21
2022/11/05 03:37:59;;;;;;;0.47;0.47;;;18.80;69.20;;;;;;4996951;28;20057;-21
2022/11/05 03:40:25;;;;;;;0.80;0.80;;;18.80;69.10;;;;;;4988040;28;20070;-22
2022/11/05 03:42:52;;;;;;;0.60;0.60;;;18.80;69.00;;;;;;4998409;28;20080;-21
2022/11/05 03:45:20;;;;;;;0.70;0.40;;;18.80;69.20;;;;;;4999945;28;20049;-25
2022/11/05 03:47:46;;;;;;;0.57;0.57;;;18.80;69.30;;;;;;5009628;28;20042;-21
2022/11/05 03:50:14;;;;;;;0.68;0.55;;;18.80;69.20;;;;;;5010379;28;20050;-22
2022/11/05 03:52:44;;;;;;;0.60;0.60;;;18.80;69.20;;;;;;5013898;28;20493;-21
2022/11/05 03:55:10;;;;;;;0.88;0.88;;;18.80;69.30;;;;;;5019796;28;20045;-21
2022/11/05 03:57:36;;;;;;;0.73;0.60;;;18.80;69.40;;;;;;5016047;28;20644;-21
2022/11/05 04:00:05;;;;;;;0.57;0.50;;;18.80;69.40;;;;;;5009133;28;20045;-21
2022/11/05 04:02:30;;;;;;;0.70;0.70;;;18.80;69.00;;;;;;4998332;28;20045;-20
2022/11/05 04:04:56;;;;;;;0.40;0.40;;;18.80;69.20;;;;;;5001047;28;20079;-21
2022/11/05 04:17:05;;;;;;;0.65;0.50;;;18.80;69.00;;;;;;5015634;28;20044;-20
2022/11/05 04:18:19;;;;;;;0.50;0.50;;;18.80;69.30;;;;;;5012499;28;20034;-24
2022/11/05 04:26:13;;;;;;;0.68;0.68;;;18.80;69.40;;;;;;5012457;28;20064;-21
2022/11/05 04:31:23;;;;;;;;;;;18.80;69.20;;;;;;4997873;28;20127;-21
2022/11/05 04:33:49;;;;;;;0.88;0.75;;;18.80;69.30;;;;;;5004466;28;20013;-22
2022/11/05 04:36:14;;;;;;;0.50;0.50;;;18.80;69.10;;;;;;4993451;28;20037;-28
2022/11/05 04:38:40;;;;;;;0.45;0.45;;;18.90;69.00;;;;;;4997361;28;20042;-26
2022/11/05 04:41:12;;;;;;;0.60;0.50;;;18.80;69.00;;;;;;5011527;28;20048;-21
2022/11/05 04:43:38;;;;;;;0.40;0.40;;;18.80;69.20;;;;;;5013233;28;20348;-21
2022/11/05 04:46:04;;;;;;;0.95;0.50;;;18.80;69.30;;;;;;5017087;28;20577;-21
2022/11/05 04:48:29;;;;;;;0.60;0.60;;;18.80;69.10;;;;;;5011561;28;20050;-20
2022/11/05 04:50:55;;;;;;;0.60;0.60;;;18.80;69.00;;;;;;5011479;28;20092;-20
2022/11/05 04:53:20;;;;;;;1.75;0.50;;;18.70;68.80;;;;;;5012398;28;20585;-21
2022/11/05 04:55:46;;;;;;;1.10;0.60;;;18.70;69.00;;;;;;5012247;28;20046;-21
2022/11/05 04:58:11;;;;;;;0.52;0.50;;;18.80;68.90;;;;;;5002101;28;20041;-21
2022/11/05 05:00:37;;;;;;;0.55;0.50;;;18.80;69.20;;;;;;5012791;28;20062;-20
2022/11/05 05:03:03;;;;;;;0.40;0.40;;;18.70;69.10;;;;;;5012422;28;20061;-21
2022/11/05 05:05:29;;;;;;;0.60;0.60;;;18.80;68.90;;;;;;5013096;28;20058;-21
2022/11/05 05:07:59;;;;;;;0.60;0.60;;;18.80;69.10;;;;;;5019055;28;20098;-21
2022/11/05 05:10:25;;;;;;;0.65;0.47;;;18.70;69.10;;;;;;5010145;28;20156;-22
2022/11/05 05:12:50;;;;;;;0.52;0.50;;;18.70;69.20;;;;;;5012940;28;20507;-21
2022/11/05 05:15:16;;;;;;;0.88;0.60;;;18.70;69.20;;;;;;5021866;28;20045;-24
2022/11/05 05:17:42;;;;;;;0.40;0.40;;;18.70;69.00;;;;;;5015693;28;20046;-21
2022/11/05 05:22:54;;;;;;;0.40;0.40;;;18.70;69.10;;;;;;5008611;28;20052;-20
2022/11/05 05:25:20;;;;;;;0.80;0.68;;;18.70;69.10;;;;;;5022582;28;20163;-20
2022/11/05 05:27:46;;;;;;;0.50;0.50;;;18.70;69.20;;;;;;5005633;28;20454;-21
2022/11/05 05:30:11;;;;;;;0.98;0.45;;;18.70;69.20;;;;;;5009983;28;20557;-20
2022/11/05 05:32:37;;;;;;;0.70;0.60;;;18.70;69.00;;;;;;4995119;28;20069;-21
2022/11/05 05:35:03;;;;;;;0.50;0.45;;;18.70;68.90;;;;;;4996102;28;20091;-21
2022/11/05 05:37:28;;;;;;;0.45;0.45;;;18.70;69.00;;;;;;4995752;28;20033;-21
2022/11/05 05:39:54;;;;;;;0.40;0.40;;;18.70;68.90;;;;;;5015506;28;20087;-21
2022/11/05 05:42:21;;;;;;;0.50;0.50;;;18.70;69.10;;;;;;5010215;28;20557;-22
2022/11/05 05:44:47;;;;;;;0.40;0.40;;;18.70;69.10;;;;;;5013257;28;20042;-23
2022/11/05 05:47:13;;;;;;;0.93;0.50;;;18.70;69.20;;;;;;5011538;28;20050;-21
2022/11/05 05:49:38;;;;;;;0.40;0.40;;;18.60;69.20;;;;;;5012401;28;20038;-20
2022/11/05 05:52:04;;;;;;;0.50;0.40;;;18.70;69.00;;;;;;4993488;28;20062;-24
2022/11/05 05:54:30;;;;;;;0.40;0.40;;;18.70;68.80;;;;;;4997555;28;20034;-23
2022/11/05 05:56:56;;;;;;;0.60;0.40;;;18.70;69.10;;;;;;4992611;28;20041;-22
2022/11/05 05:59:22;;;;;;;1.58;0.32;;;18.70;69.20;;;;;;4992918;28;20073;-20
2022/11/05 06:01:48;;;;;;;0.73;0.60;;;18.70;69.20;;;;;;4995967;28;20831;-21
2022/11/05 06:04:13;;;;;;;0.60;0.50;;;18.70;69.10;;;;;;4989309;28;20034;-23
2022/11/05 06:06:39;;;;;;;0.40;0.40;;;18.70;69.20;;;;;;5009025;28;20049;-21
2022/11/05 06:09:04;;;;;;;0.65;0.65;;;18.60;69.20;;;;;;5007608;28;20124;-21
2022/11/05 06:11:30;;;;;;;0.50;0.50;;;18.70;69.20;;;;;;5005439;28;20049;-21
2022/11/05 06:13:56;;;;;;;0.43;0.43;;;18.70;69.10;;;;;;4992401;28;20112;-24
2022/11/05 06:16:22;;;;;;;0.35;0.35;;;18.70;69.10;;;;;;4990969;28;20038;-21
2022/11/05 06:18:47;;;;;;;1.00;0.68;;;18.70;68.90;;;;;;4992816;28;20054;-20
2022/11/05 06:21:15;;;;;;;0.50;0.50;;;18.70;69.10;;;;;;4992619;28;20054;-20
2022/11/05 06:23:42;;;;;;;0.40;0.40;;;18.60;68.90;;;;;;4988990;28;20042;-30
2022/11/05 06:26:12;;;;;;;0.38;0.38;;;18.70;69.00;;;;;;5009652;28;20037;-21
2022/11/05 06:28:38;;;;;;;0.52;0.52;;;18.60;69.10;;;;;;4991794;28;20695;-21
2022/11/05 06:31:04;;;;;;;0.50;0.40;;;18.60;69.00;;;;;;4993678;28;20046;-21
2022/11/05 06:33:30;;;;;;;0.60;0.60;;;18.60;69.10;;;;;;5006362;28;20050;-21
2022/11/05 06:35:59;;;;;;;0.55;0.45;;;18.60;69.90;;;;;;5011057;28;20536;-21
2022/11/05 06:38:24;;;;;;;0.50;0.50;;;18.60;69.00;;;;;;4998063;28;20041;-21
2022/11/05 06:40:50;;;;;;;0.50;0.50;;;18.60;69.10;;;;;;5011827;28;20049;-39
2022/11/05 06:43:15;;;;;;;0.73;0.52;;;18.70;68.90;;;;;;5007432;28;20089;-35
2022/11/05 06:45:41;;;;;;;1.48;0.40;;;18.70;68.60;;;;;;5010107;28;22741;-38
2022/11/05 06:48:07;;;;;;;0.55;0.50;;;18.70;68.60;;;;;;5006628;28;20073;-41
2022/11/05 06:50:32;;;;;;;0.75;0.60;;;18.70;68.70;;;;;;5015363;28;20510;-39
2022/11/05 06:52:59;;;;;;;0.35;0.35;;;18.70;68.50;;;;;;5011603;28;20108;-39
2022/11/05 06:55:27;;;;;;;0.55;0.40;;;18.70;68.30;;;;;;4998761;28;20065;-43
2022/11/05 06:57:53;;;;;;;0.30;0.30;;;18.70;68.20;;;;;;4994097;28;20340;-38
2022/11/05 07:00:18;;;;;;;0.57;0.38;;;18.70;68.20;;;;;;4989969;28;20823;-38
2022/11/05 07:02:44;;;;;;;0.80;0.50;;;18.80;68.20;;;;;;4989424;28;20047;-33
2022/11/05 07:05:10;;;;;;;0.50;0.50;;;18.90;68.40;;;;;;4989356;28;20046;-38
2022/11/05 07:07:39;;;;;;;0.65;0.40;;;18.70;68.30;;;;;;4990712;28;20054;-41
2022/11/05 07:10:05;;;;;;;0.60;0.40;;;18.70;68.40;;;;;;4986604;28;20749;-37
2022/11/05 07:12:31;;;;;;;1.35;0.50;;;18.80;68.40;;;;;;4988666;28;20097;-39
2022/11/05 07:14:57;;;;;;;0.40;0.40;;;18.70;68.70;;;;;;4992768;28;20038;-38
2022/11/05 07:17:22;;;;;;;0.77;0.57;;;18.70;68.60;;;;;;4991936;28;20053;-39
2022/11/05 07:19:48;;;;;;;0.50;0.50;;;18.70;68.40;;;;;;4993414;28;20050;-36
2022/11/05 07:22:13;;;;;;;0.65;0.45;;;18.70;68.40;;;;;;4986699;28;20410;-36
2022/11/05 07:24:39;;;;;;;0.40;0.40;;;18.70;68.40;;;;;;4979824;28;20050;-36
2022/11/05 07:27:04;;;;;;;0.82;0.65;;;18.80;68.60;;;;;;4986942;28;20508;-38
2022/11/05 07:29:30;;;;;;;0.40;0.40;;;18.80;68.40;;;;;;4990158;28;20042;-42
2022/11/05 07:31:56;;;;;;;0.43;0.40;;;18.80;68.20;;;;;;5001442;28;20038;-37
2022/11/05 07:34:21;;;;;;;1.15;0.60;;;19.00;68.00;;;;;;5009564;28;20639;-40
2022/11/05 07:36:47;;;;;;;0.55;0.40;;;19.00;69.20;;;;;;5018138;28;20048;-37
2022/11/05 07:39:12;;;;;;;0.93;0.50;;;18.80;69.00;;;;;;5011083;28;20042;-38
2022/11/05 07:41:38;;;;;;;1.42;0.50;;;18.90;69.20;;;;;;5019508;28;20046;-41
2022/11/05 07:44:03;;;;;;;1.00;0.50;;;18.80;69.40;;;;;;5017014;28;20045;-39
2022/11/05 07:46:29;;;;;;;1.80;0.50;;;18.90;70.20;;;;;;5015960;28;20545;-39
2022/11/05 07:48:55;;;;;;;2.58;0.50;;;18.80;68.40;;;;;;5017390;28;20098;-39
2022/11/05 07:51:20;;;;;;;0.55;0.40;;;18.70;69.40;;;;;;5006568;28;20136;-42
2022/11/05 07:53:47;;;;;;;1.45;0.50;;;18.70;69.20;;;;;;5014129;28;20038;-39
2022/11/05 07:56:13;;;;;;;0.52;0.40;;;18.70;69.10;;;;;;5019641;28;20064;-40
2022/11/05 07:58:39;;;;;;;2.17;0.55;;;18.70;68.70;;;;;;5009506;28;20053;-42
2022/11/05 08:01:05;;;;;;;1.00;0.50;;;18.80;68.70;;;;;;5010658;28;20430;-38
2022/11/05 08:03:31;;;;;;;1.73;0.40;;;18.70;69.30;;;;;;5020135;28;20045;-38
2022/11/05 08:05:57;;;;;;;0.60;0.50;;;18.70;69.20;;;;;;5012810;28;20053;-35
2022/11/05 08:08:22;;;;;;;0.30;0.30;;;18.70;68.90;;;;;;4997109;28;20057;-41
2022/11/05 08:10:48;;;;;;;0.75;0.50;;;18.70;69.10;;;;;;5006439;28;20053;-38
2022/11/05 08:13:14;;;;;;;0.75;0.40;;;18.70;69.00;;;;;;5009347;28;20099;-39
2022/11/05 08:15:41;;;;;;;0.57;0.52;;;18.70;68.90;;;;;;5009498;28;20098;-37
2022/11/05 08:18:09;;;;;;;0.88;0.60;;;18.70;68.90;;;;;;5018306;28;20495;-37
2022/11/05 08:20:35;;;;;;;0.68;0.50;;;18.70;69.00;;;;;;5008851;28;20042;-39
2022/11/05 08:23:00;;;;;;;0.57;0.57;;;18.70;69.80;;;;;;5008701;28;20437;-38
2022/11/05 08:25:26;;;;;;;0.65;0.40;;;18.70;69.10;;;;;;5001221;28;20049;-36
2022/11/05 08:27:56;;;;;;;0.70;0.50;;;18.70;69.00;;;;;;4998742;28;20147;-39
2022/11/05 08:30:22;;;;;;;1.05;0.60;;;18.70;68.90;;;;;;5002444;28;20050;-39
2022/11/05 08:32:47;;;;;;;0.85;0.40;;;18.70;68.90;;;;;;5000031;28;20054;-39
2022/11/05 08:35:13;;;;;;;0.45;0.35;;;18.80;68.70;;;;;;5009004;28;20037;-44
2022/11/05 08:37:38;;;;;;;0.52;0.50;;;18.80;68.80;;;;;;5002222;28;20077;-39
2022/11/05 08:40:04;;;;;;;0.50;0.50;;;18.80;68.90;;;;;;5014878;28;20415;-39
2022/11/05 08:42:30;;;;;;;2.05;0.50;;;18.80;68.90;;;;;;5010471;28;20084;-39
2022/11/05 08:44:55;;;;;;;0.47;0.40;;;18.70;70.00;;;;;;4996641;28;22475;-39
2022/11/05 08:47:21;;;;;;;0.77;0.60;;;18.70;69.60;;;;;;4995420;28;20097;-20
2022/11/05 08:49:47;;;;;;;0.63;0.63;;;18.70;69.80;;;;;;4998320;28;20403;-38
2022/11/05 08:52:12;;;;;;;0.55;0.45;;;18.70;70.00;;;;;;5002581;28;20053;-39
2022/11/05 08:54:38;;;;;;;0.40;0.30;;;18.70;69.90;;;;;;5009826;28;20050;-39
2022/11/05 08:57:03;;;;;;;0.50;0.30;;;18.80;70.40;;;;;;5017238;28;20638;-38
2022/11/05 08:59:30;;;;;;;0.85;0.45;;;18.70;70.00;;;;;;5010387;28;20168;-40
2022/11/05 09:01:56;;;;;;;4.50;0.40;;;18.70;70.70;;;;;;5012488;28;20411;-37
2022/11/05 09:04:21;;;;;;;0.65;0.55;;;18.70;70.30;;;;;;4997967;28;20510;-39
2022/11/05 09:06:47;;;;;;;0.63;0.40;;;18.80;70.00;;;;;;4990055;28;20054;-39
2022/11/05 09:09:12;;;;;;;0.82;0.40;;;18.80;70.60;;;;;;4985793;28;20543;-38
2022/11/05 09:11:38;;;;;;;0.93;0.50;;;18.80;69.80;;;;;;4993418;28;20092;-37
2022/11/05 09:14:03;;;;;;;0.90;0.45;;;18.90;69.80;;;;;;4995618;28;20048;-39
2022/11/05 09:16:31;;;;;;;0.50;0.50;;;19.00;70.20;;;;;;5010502;28;20423;-38
2022/11/05 09:18:56;;;;;;;2.53;0.57;;;18.90;70.30;;;;;;5015615;28;20495;-37
2022/11/05 09:21:22;;;;;;;0.73;0.45;;;18.90;69.70;;;;;;5011872;28;20037;-40
2022/11/05 09:23:48;;;;;;;0.40;0.20;;;18.90;69.40;;;;;;5014867;28;20093;-39
2022/11/05 09:26:13;;;;;;;1.85;0.60;;;18.90;69.20;;;;;;5014276;28;20037;-41
2022/11/05 09:28:39;;;;;;;2.25;0.40;;;18.90;69.20;;;;;;5014507;28;20064;-37
2022/11/05 09:31:09;;;;;;;0.45;0.40;;;19.00;69.20;;;;;;5007670;28;20104;-39
2022/11/05 09:33:35;;;;;;;0.95;0.60;;;19.00;68.90;;;;;;5016111;28;20132;-39
2022/11/05 09:36:01;;;;;;;1.33;0.40;;;19.00;68.90;;;;;;5016713;28;20140;-39
2022/11/05 09:38:26;;;;;;;0.40;0.40;;;18.90;69.10;;;;;;5007735;28;20412;-37
2022/11/05 09:41:01;;;;;;;1.55;0.50;;;18.90;69.10;;;;;;5014133;28;20041;-41
2022/11/05 09:43:35;;;;;;;0.63;0.40;;;18.90;69.10;;;;;;5011947;28;20062;-39
2022/11/05 09:46:05;;;;;;;0.50;0.40;;;18.90;69.10;;;;;;5005742;28;20115;-36
2022/11/05 09:48:31;;;;;;;0.63;0.52;;;19.00;69.10;;;;;;4998308;28;20046;-38
2022/11/05 09:50:57;;;;;;;0.88;0.50;;;19.10;69.10;;;;;;4990709;28;20061;-41
2022/11/05 09:53:22;;;;;;;0.77;0.50;;;19.30;68.50;;;;;;4990676;28;20054;-41
2022/11/05 09:55:58;;;;;;;0.68;0.40;;;19.30;68.30;;;;;;4987967;28;20148;-39
2022/11/05 09:58:31;;;;;;;0.73;0.50;;;19.30;68.60;;;;;;5021685;28;20030;-42
2022/11/05 10:00:56;;;;;;;0.55;0.50;;;19.20;68.60;;;;;;5010540;28;20061;-42
2022/11/05 10:03:22;;;;;;;0.88;0.60;;;19.10;68.80;;;;;;5010910;28;20048;-40
2022/11/05 10:05:49;;;;;;;1.88;0.50;;;19.10;69.40;;;;;;5007315;28;20077;-39
2022/11/05 10:08:27;;;;;;;0.77;0.57;;;19.20;69.40;;;;;;5012613;28;20049;-37
2022/11/05 10:10:55;;;;;;;0.57;0.43;;;19.20;69.00;;;;;;4988346;28;20062;-41
2022/11/05 10:13:22;;;;;;;0.88;0.50;;;19.20;69.20;;;;;;4992713;28;20107;-34
2022/11/05 10:15:56;;;;;;;0.95;0.50;;;19.10;69.50;;;;;;4992976;28;20074;-44
2022/11/05 10:18:38;;;;;;;0.70;0.70;;;19.10;69.60;;;;;;4991845;28;20046;-43
2022/11/05 10:21:04;;;;;;;0.45;0.30;;;19.10;69.50;;;;;;4992116;28;20095;-44
2022/11/05 10:23:29;;;;;;;2.25;0.60;;;19.10;69.50;;;;;;4992503;28;20050;-42
2022/11/05 10:25:57;;;;;;;2.08;0.47;;;19.10;69.40;;;;;;4999003;28;20431;-42
2022/11/05 10:28:24;;;;;;;1.40;0.40;;;19.10;69.60;;;;;;4992419;28;20065;-44
2022/11/05 10:30:52;;;;;;;0.60;0.43;;;19.20;69.20;;;;;;4991932;28;21884;-39
2022/11/05 10:33:29;;;;;;;2.15;0.75;;;19.10;69.30;;;;;;4993222;28;20140;-44
2022/11/05 10:35:59;;;;;;;1.35;0.50;;;19.10;69.50;;;;;;4992634;28;20050;-44
2022/11/05 10:38:25;;;;;;;0.63;0.40;;;19.10;69.50;;;;;;4991631;28;20546;-45
2022/11/05 10:41:12;;;;;;;2.28;0.60;;;19.10;69.60;;;;;;4998485;28;20043;-41
2022/11/05 10:43:50;;;;;;;1.02;0.40;;;19.10;69.30;;;;;;4988589;28;20062;-40
2022/11/05 10:46:31;;;;;;;0.77;0.40;;;19.10;69.30;;;;;;4989471;28;20030;-44
2022/11/05 10:49:06;;;;;;;0.80;0.50;;;19.10;69.20;;;;;;4991220;28;20054;-41
2022/11/05 10:51:32;;;;;;;1.15;0.60;;;19.20;69.10;;;;;;4990580;28;20045;-39
2022/11/05 10:54:02;;;;;;;3.17;0.57;;;19.30;68.50;;;;;;4993710;28;20041;-39
2022/11/05 10:56:35;;;;;;;3.10;0.68;;;19.40;68.50;;;;;;5016062;28;20046;-37
2022/11/05 10:59:02;;;;;;;0.90;0.60;;;19.40;68.40;;;;;;5011847;28;20038;-38
2022/11/05 11:01:28;;;;;;;0.32;0.32;;;19.40;68.40;;;;;;5018832;28;20045;-37
2022/11/05 11:04:05;;;;;;;1.42;0.80;;;19.30;68.40;;;;;;5016007;28;20038;-35
2022/11/05 11:06:33;;;;;;;1.48;0.50;;;19.30;68.30;;;;;;5020977;28;20079;-37
2022/11/05 11:09:04;;;;;;;2.20;0.80;;;19.50;68.20;;;;;;5007280;28;20077;-36
2022/11/05 11:11:39;;;;;;;1.90;0.45;;;19.40;68.40;;;;;;5002702;28;20458;-30
2022/11/05 11:14:06;;;;;;;0.70;0.50;;;19.30;68.40;;;;;;5022565;28;20037;-38
2022/11/05 11:16:39;;;;;;;1.42;0.50;;;19.30;68.60;;;;;;5016428;28;20064;-36
2022/11/05 11:19:25;;;;;;;3.85;0.40;;;19.30;68.70;;;;;;5028607;28;20095;-39
2022/11/05 11:22:02;;;;;;;2.70;0.50;;;19.30;68.70;;;;;;5012997;28;20096;-38
2022/11/05 11:24:28;;;;;;;3.45;0.70;;;19.40;68.40;;;;;;5007307;28;20022;-40
2022/11/05 11:26:54;;;;;;;2.10;0.50;;;19.60;68.00;;;;;;4998217;28;20388;-40
2022/11/05 11:29:25;;;;;;;0.85;0.40;;;19.50;68.00;;;;;;4960829;28;20113;-38
2022/11/05 11:31:53;;;;;;;2.33;0.60;;;19.50;68.20;;;;;;4992044;28;20073;-39
2022/11/05 11:34:26;;;;;;;0.70;0.40;;;19.50;68.10;;;;;;5015562;28;20033;-39
2022/11/05 11:36:53;;;;;;;0.60;0.30;;;19.40;68.20;;;;;;5017669;28;20064;-40
2022/11/05 11:39:23;;;;;;;2.40;0.55;;;19.50;69.10;;;;;;5015914;28;20129;-37
2022/11/05 11:41:50;;;;;;;1.67;0.43;;;19.60;68.10;;;;;;5004077;28;20046;-39
2022/11/05 11:44:23;;;;;;;1.33;0.50;;;19.70;67.90;;;;;;5000852;28;20042;-42
2022/11/05 11:46:49;;;;;;;0.60;0.50;;;19.50;69.50;;;;;;5007991;28;20038;-39
2022/11/05 11:49:47;;;;;;;1.90;0.60;;;19.30;68.60;;;;;;5008274;28;20058;-40
2022/11/05 11:52:15;;;;;;;1.17;0.90;;;19.30;68.90;;;;;;5022474;28;20041;-40
2022/11/05 11:54:41;;;;;;;0.73;0.50;;;19.30;69.00;;;;;;5018186;28;20087;-40
2022/11/05 11:57:19;;;;;;;2.10;0.73;;;19.30;68.80;;;;;;5013672;28;20139;-39
2022/11/05 11:59:44;;;;;;;4.38;1.00;;;19.20;69.00;;;;;;5010587;28;20467;-39
2022/11/05 12:02:33;;;;;;;2.60;0.60;;;19.50;68.40;;;;;;5016396;28;20502;-40
2022/11/05 12:05:14;;;;;;;4.43;0.50;;;19.40;68.00;;;;;;5023436;28;20046;-40
2022/11/05 12:07:43;;;;;;;0.85;0.30;;;19.60;67.70;;;;;;4642402;28;9999884;-39
2022/11/05 12:10:33;;;;;;;4.53;0.65;;;19.50;69.30;;;;;;4990862;28;20052;-39
2022/11/05 12:13:19;;;;;;;0.63;0.40;;;19.50;68.80;;;;;;5006956;28;20049;-39
2022/11/05 12:15:56;;;;;;;1.40;0.40;;;19.50;67.80;;;;;;5015193;28;20099;-39
2022/11/05 12:18:43;;;;;;;1.50;0.50;;;19.20;68.40;;;;;;4996218;28;20046;-40
2022/11/05 12:21:30;;;;;;;2.35;0.30;;;19.10;69.50;;;;;;5010300;28;20060;-39
2022/11/05 12:24:05;;;;;;;0.60;0.43;;;19.40;68.70;;;;;;4982005;28;20046;-38
2022/11/05 12:26:51;;;;;;;2.75;0.40;;;19.60;68.10;;;;;;4987681;28;20047;-39
2022/11/05 12:29:41;;;;;;;2.47;0.57;;;19.70;67.60;;;;;;4999066;28;20537;-42
2022/11/05 12:32:54;;;;;;;1.30;0.73;;;19.70;67.90;;;;;;5003981;28;20045;-39
2022/11/05 12:35:47;;;;;;;11.15;1.10;;;19.70;67.80;;;;;;4990245;28;20123;-40
2022/11/05 12:38:21;;;;;;;1.67;0.65;;;19.70;67.90;;;;;;4982859;28;20400;-37
2022/11/05 12:41:05;;;;;;;;;;;19.60;68.00;;;;;;5000463;28;20140;-39
2022/11/05 12:43:46;;;;;;;1.07;0.70;;;19.60;68.10;;;;;;5002199;28;19964;-40
2022/11/05 12:46:35;;;;;;;2.63;0.80;;;19.70;67.90;;;;;;4968756;28;20432;-41
2022/11/05 12:49:29;;;;;;;1.13;0.47;;;19.70;68.00;;;;;;4963997;28;20056;-42
2022/11/05 12:52:04;;;;;;;1.47;0.53;;;19.70;67.90;;;;;;4982076;28;20057;-36
2022/11/05 12:54:43;;;;;;;2.42;0.60;;;19.70;67.80;;;;;;4980681;28;20050;-38
2022/11/05 12:57:10;;;;;;;0.60;0.60;;;19.70;67.90;;;;;;4982689;28;20062;-39
2022/11/05 12:59:37;;;;;;;1.38;0.63;;;19.60;68.30;;;;;;4980167;28;20949;-41
2022/11/05 13:02:14;;;;;;;4.10;0.70;;;19.60;68.30;;;;;;4983037;28;20050;-41
2022/11/05 13:04:42;;;;;;;1.35;0.65;;;19.60;68.70;;;;;;4980697;28;20053;-41
2022/11/05 13:07:10;;;;;;;1.83;0.68;;;19.50;68.80;;;;;;4996376;28;20311;-40
2022/11/05 13:09:45;;;;;;;0.77;0.57;;;19.70;68.50;;;;;;5002373;28;20131;-46
2022/11/05 13:12:12;;;;;;;0.60;0.55;;;19.80;68.20;;;;;;5001304;28;20096;-41
2022/11/05 13:14:40;;;;;;;2.35;0.60;;;19.70;68.30;;;;;;5008087;28;20053;-40
2022/11/05 13:17:09;;;;;;;3.67;0.80;;;19.70;68.60;;;;;;5015523;28;20038;-40
2022/11/05 13:19:49;;;;;;;1.17;0.57;;;19.50;69.10;;;;;;5012615;28;20192;-42
2022/11/05 13:22:19;;;;;;;1.38;0.70;;;19.50;69.10;;;;;;4997852;28;20097;-40
2022/11/05 13:24:49;;;;;;;0.85;0.60;;;19.50;70.20;;;;;;4997110;28;20072;-43
2022/11/05 13:27:17;;;;;;;0.95;0.75;;;19.60;69.20;;;;;;5009887;28;20041;-40
2022/11/05 13:29:47;;;;;;;0.77;0.52;;;19.60;69.50;;;;;;5007744;28;20380;-40
2022/11/05 13:32:36;;;;;;;1.13;0.70;;;19.50;68.90;;;;;;5007657;28;20046;-40
2022/11/05 13:35:04;;;;;;;1.05;0.68;;;19.40;69.20;;;;;;5007712;28;20041;-40
2022/11/05 13:40:17;;;;;;;1.52;0.80;;;19.70;68.80;;;;;;5004224;28;20056;-41
2022/11/05 13:42:56;;;;;;;0.90;0.77;;;19.50;69.10;;;;;;5001668;28;20058;-38
2022/11/05 13:45:57;;;;;;;1.15;0.50;;;19.50;68.80;;;;;;4998667;28;20523;-39